Time;durP1;ratioP1;P1;durP2;ratioP2;P2;SDS_P1;SDS_P2;PMS_P1;PMS_P2;Temp;Humidity;BMP_temperature;BMP_pressure;BME280_temperature;BME280_humidity;BME280_pressure;Samples;Min_cycle;Max_cycle;Signal;HPM_P1;HPM_P2
2022/07/06 00:01:38;;;;;;;4.53;2.30;;;13.90;99.90;;;;;;5058305;28;20040;-76
2022/07/06 00:04:05;;;;;;;5.45;2.70;;;13.90;99.90;;;;;;5063858;28;20100;-77
2022/07/06 00:06:31;;;;;;;3.43;2.00;;;13.90;99.90;;;;;;5065310;28;20068;-77
2022/07/06 00:08:57;;;;;;;8.55;2.45;;;13.90;99.90;;;;;;5063017;28;20079;-77
2022/07/06 00:11:23;;;;;;;4.72;2.35;;;13.90;99.90;;;;;;5064536;28;20041;-77
2022/07/06 00:13:49;;;;;;;7.53;2.67;;;13.90;99.90;;;;;;5066480;28;20060;-77
2022/07/06 00:16:15;;;;;;;6.85;2.13;;;13.90;99.90;;;;;;5066203;28;20844;-77
2022/07/06 00:18:40;;;;;;;4.23;2.20;;;13.90;99.90;;;;;;5069056;28;20048;-77
2022/07/06 00:21:06;;;;;;;4.73;2.20;;;13.90;99.90;;;;;;5056015;28;20048;-76
2022/07/06 00:23:32;;;;;;;5.72;2.40;;;13.90;99.90;;;;;;5067334;28;20055;-76
2022/07/06 00:25:58;;;;;;;4.95;2.20;;;13.90;99.90;;;;;;5042754;28;20044;-77
2022/07/06 00:28:23;;;;;;;4.67;2.30;;;13.90;99.90;;;;;;5045053;28;20071;-77
2022/07/06 00:30:49;;;;;;;8.37;2.20;;;13.90;99.90;;;;;;5061804;28;20059;-77
2022/07/06 00:33:15;;;;;;;3.67;2.17;;;13.90;99.90;;;;;;5042786;28;20525;-77
2022/07/06 00:35:41;;;;;;;4.50;2.30;;;13.90;99.90;;;;;;5063766;28;20055;-76
2022/07/06 00:38:07;;;;;;;5.77;1.90;;;13.90;99.90;;;;;;5064273;28;20068;-76
2022/07/06 00:40:32;;;;;;;4.15;2.08;;;13.90;99.90;;;;;;5068260;28;20045;-76
2022/07/06 00:42:58;;;;;;;3.45;2.03;;;13.80;99.90;;;;;;5062844;28;20067;-77
2022/07/06 00:45:24;;;;;;;5.82;2.40;;;13.90;99.90;;;;;;5066319;28;20514;-76
2022/07/06 00:47:50;;;;;;;8.18;3.25;;;13.80;99.90;;;;;;5067397;28;20057;-76
2022/07/06 00:50:23;;;;;;;7.53;2.17;;;13.80;99.90;;;;;;5071025;28;20036;-76
2022/07/06 00:52:51;;;;;;;4.37;2.13;;;13.80;99.90;;;;;;5060023;28;20037;-77
2022/07/06 00:55:22;;;;;;;4.33;2.30;;;13.80;99.90;;;;;;5063340;28;20060;-76
2022/07/06 00:57:48;;;;;;;5.67;2.50;;;13.80;99.90;;;;;;5060881;28;20811;-77
2022/07/06 01:00:16;;;;;;;4.10;2.30;;;13.80;99.90;;;;;;5059986;28;20040;-77
2022/07/06 01:02:42;;;;;;;4.60;2.40;;;13.80;99.90;;;;;;5066454;28;20057;-77
2022/07/06 01:05:10;;;;;;;6.13;2.37;;;13.80;99.90;;;;;;5062767;28;20041;-77
2022/07/06 01:07:37;;;;;;;4.90;2.23;;;13.80;99.90;;;;;;5045901;28;20040;-77
2022/07/06 01:10:07;;;;;;;3.53;2.30;;;13.80;99.90;;;;;;5065091;28;20052;-77
2022/07/06 01:12:38;;;;;;;7.03;2.23;;;13.70;99.90;;;;;;5052358;28;20108;-77
2022/07/06 01:15:05;;;;;;;5.45;2.08;;;13.70;99.90;;;;;;5070345;28;20067;-77
2022/07/06 01:17:32;;;;;;;2.93;2.27;;;13.70;99.90;;;;;;5062741;28;20087;-77
2022/07/06 01:19:58;;;;;;;4.40;2.20;;;13.70;99.90;;;;;;5060154;28;20071;-77
2022/07/06 01:22:24;;;;;;;3.33;2.20;;;13.70;99.90;;;;;;5057699;28;20090;-77
2022/07/06 01:24:49;;;;;;;5.27;2.37;;;13.70;99.90;;;;;;5027401;28;20590;-77
2022/07/06 01:27:15;;;;;;;3.27;1.90;;;13.70;99.90;;;;;;5027593;28;20044;-76
2022/07/06 01:29:41;;;;;;;3.67;2.23;;;13.70;99.90;;;;;;5047215;28;20040;-77
2022/07/06 01:32:07;;;;;;;5.33;2.30;;;13.60;99.90;;;;;;5037028;28;20558;-77
2022/07/06 01:34:33;;;;;;;5.60;2.50;;;13.70;99.90;;;;;;5062432;28;20098;-77
2022/07/06 01:36:58;;;;;;;4.50;2.17;;;13.70;99.90;;;;;;5049137;28;20060;-76
2022/07/06 01:39:24;;;;;;;6.30;2.27;;;13.70;99.90;;;;;;5065705;28;20044;-77
2022/07/06 01:41:50;;;;;;;6.43;2.00;;;13.70;99.90;;;;;;5069331;28;20741;-76
2022/07/06 01:44:15;;;;;;;5.43;2.83;;;13.70;99.90;;;;;;5032784;28;20060;-76
2022/07/06 01:46:41;;;;;;;3.07;2.17;;;13.70;99.90;;;;;;5063901;28;20049;-77
2022/07/06 01:49:07;;;;;;;4.53;2.70;;;13.70;99.90;;;;;;5042351;28;20116;-77
2022/07/06 01:51:32;;;;;;;5.10;2.10;;;13.70;99.90;;;;;;5059320;28;20032;-77
2022/07/06 01:53:58;;;;;;;4.97;2.30;;;13.70;99.90;;;;;;5045064;28;20044;-77
2022/07/06 01:56:24;;;;;;;4.90;2.38;;;13.70;99.90;;;;;;5060022;28;20045;-76
2022/07/06 01:58:50;;;;;;;5.33;2.03;;;13.70;99.90;;;;;;5045930;28;20048;-77
2022/07/06 02:01:18;;;;;;;3.60;2.22;;;13.60;99.90;;;;;;5060947;28;20076;-77
2022/07/06 02:03:44;;;;;;;4.73;2.30;;;13.60;99.90;;;;;;5063404;28;20673;-77
2022/07/06 02:06:11;;;;;;;3.67;2.40;;;13.60;99.90;;;;;;5048163;28;20049;-77
2022/07/06 02:08:38;;;;;;;5.70;2.00;;;13.60;99.90;;;;;;5065440;28;20072;-77
2022/07/06 02:11:08;;;;;;;7.33;2.63;;;13.50;99.90;;;;;;5066107;28;20101;-76
2022/07/06 02:13:35;;;;;;;3.50;2.00;;;13.50;99.90;;;;;;5068034;28;20105;-77
2022/07/06 02:16:01;;;;;;;4.80;2.30;;;13.50;99.90;;;;;;5057699;28;20049;-77
2022/07/06 02:18:27;;;;;;;4.27;1.90;;;13.50;99.90;;;;;;5039445;28;20041;-77
2022/07/06 02:20:53;;;;;;;10.90;2.27;;;13.40;99.90;;;;;;5058977;28;20150;-77
2022/07/06 02:23:18;;;;;;;6.73;2.27;;;13.40;99.90;;;;;;5060812;28;20507;-76
2022/07/06 02:25:44;;;;;;;3.33;2.00;;;13.50;99.90;;;;;;5060624;28;20771;-77
2022/07/06 02:28:10;;;;;;;3.80;1.83;;;13.50;99.90;;;;;;5063141;28;20041;-76
2022/07/06 02:30:36;;;;;;;5.67;2.10;;;13.50;99.90;;;;;;5062667;28;20064;-76
2022/07/06 02:33:01;;;;;;;3.93;2.00;;;13.40;99.90;;;;;;5065589;28;20439;-77
2022/07/06 02:35:27;;;;;;;3.20;1.93;;;13.40;99.90;;;;;;5061013;28;20041;-76
2022/07/06 02:37:53;;;;;;;4.00;2.33;;;13.40;99.90;;;;;;5068619;28;21101;-76
2022/07/06 02:40:18;;;;;;;3.87;1.70;;;13.50;99.90;;;;;;5064273;28;20044;-76
2022/07/06 02:42:44;;;;;;;3.00;1.90;;;13.40;99.90;;;;;;5064108;28;20044;-77
2022/07/06 02:45:10;;;;;;;4.43;1.83;;;13.40;99.90;;;;;;5059562;28;20078;-76
2022/07/06 02:47:37;;;;;;;6.70;1.83;;;13.40;99.90;;;;;;5057037;28;20071;-77
2022/07/06 02:50:04;;;;;;;6.13;2.07;;;13.40;99.90;;;;;;5059101;28;20124;-76
2022/07/06 02:52:30;;;;;;;7.10;2.03;;;13.40;99.90;;;;;;5035353;28;20055;-77
2022/07/06 02:54:56;;;;;;;4.87;2.13;;;13.40;99.90;;;;;;5059832;28;20076;-76
2022/07/06 02:57:21;;;;;;;4.33;1.90;;;13.40;99.90;;;;;;5062483;28;20052;-76
2022/07/06 02:59:49;;;;;;;4.93;2.07;;;13.50;99.90;;;;;;5046496;28;20045;-76
2022/07/06 03:02:18;;;;;;;4.27;1.90;;;13.50;99.90;;;;;;5062852;28;20062;-77
2022/07/06 03:04:44;;;;;;;4.23;1.93;;;13.50;99.90;;;;;;5035066;28;20033;-76
2022/07/06 03:07:09;;;;;;;2.67;2.03;;;13.50;99.90;;;;;;5049369;28;20044;-77
2022/07/06 03:09:35;;;;;;;5.63;2.20;;;13.50;99.90;;;;;;5049133;28;20079;-76
2022/07/06 03:12:01;;;;;;;5.67;2.20;;;13.50;99.90;;;;;;5067343;28;20066;-76
2022/07/06 03:14:27;;;;;;;4.47;2.03;;;13.50;99.90;;;;;;5052679;28;20863;-77
2022/07/06 03:16:53;;;;;;;6.47;2.30;;;13.50;99.90;;;;;;5060288;28;20045;-76
2022/07/06 03:19:19;;;;;;;6.80;2.23;;;13.50;99.90;;;;;;5057091;28;20048;-77
2022/07/06 03:21:45;;;;;;;3.20;2.00;;;13.50;99.90;;;;;;5059603;28;20041;-77
2022/07/06 03:24:11;;;;;;;4.37;1.80;;;13.50;99.90;;;;;;5061010;28;20071;-77
2022/07/06 03:26:37;;;;;;;6.60;2.10;;;13.50;99.90;;;;;;5057914;28;20049;-76
2022/07/06 03:29:02;;;;;;;2.80;1.90;;;13.50;99.90;;;;;;5062532;28;20116;-76
2022/07/06 03:31:28;;;;;;;6.90;2.00;;;13.50;99.90;;;;;;5046063;28;20677;-77
2022/07/06 03:33:54;;;;;;;2.63;1.90;;;13.50;99.90;;;;;;5050518;28;20068;-77
2022/07/06 03:36:20;;;;;;;4.13;1.77;;;13.50;99.90;;;;;;5054212;28;20052;-76
2022/07/06 03:38:45;;;;;;;2.23;1.97;;;13.50;99.90;;;;;;5070748;28;20051;-77
2022/07/06 03:41:11;;;;;;;4.90;2.07;;;13.50;99.90;;;;;;5046987;28;20530;-76
2022/07/06 03:43:37;;;;;;;5.83;2.30;;;13.50;99.90;;;;;;5041507;28;20033;-77
2022/07/06 03:46:03;;;;;;;5.37;2.03;;;13.60;99.90;;;;;;5063867;28;20053;-76
2022/07/06 03:48:29;;;;;;;6.17;2.07;;;13.60;99.90;;;;;;5045331;28;20041;-76
2022/07/06 03:50:55;;;;;;;3.13;2.13;;;13.60;99.90;;;;;;5045337;28;20052;-77
2022/07/06 03:53:21;;;;;;;7.13;2.50;;;13.70;99.90;;;;;;5066519;28;20045;-76
2022/07/06 03:58:31;;;;;;;5.33;2.10;;;13.70;99.90;;;;;;5052688;28;20049;-78
2022/07/06 04:00:57;;;;;;;4.47;1.93;;;13.70;99.90;;;;;;5066451;28;20052;-77
2022/07/06 04:03:22;;;;;;;5.17;2.10;;;13.70;99.90;;;;;;5052038;28;20086;-77
2022/07/06 04:05:48;;;;;;;5.07;2.27;;;13.60;99.90;;;;;;5064180;28;21423;-77
2022/07/06 04:08:14;;;;;;;2.67;1.90;;;13.60;99.90;;;;;;5056302;28;20032;-77
2022/07/06 04:10:39;;;;;;;3.30;2.07;;;13.60;99.90;;;;;;5065314;28;20045;-77
2022/07/06 04:13:05;;;;;;;5.17;2.00;;;13.60;99.90;;;;;;5059620;28;20068;-77
2022/07/06 04:15:31;;;;;;;4.07;1.97;;;13.60;99.90;;;;;;5065162;28;20078;-77
2022/07/06 04:17:56;;;;;;;6.57;2.00;;;13.60;99.90;;;;;;5061203;28;20052;-77
2022/07/06 04:20:24;;;;;;;4.83;1.97;;;13.60;99.90;;;;;;5048159;28;20048;-77
2022/07/06 04:22:50;;;;;;;3.70;1.77;;;13.60;99.90;;;;;;5063300;28;20045;-76
2022/07/06 04:25:16;;;;;;;3.63;1.90;;;13.60;99.90;;;;;;5048213;28;20079;-77
2022/07/06 04:27:42;;;;;;;4.63;2.00;;;13.60;99.90;;;;;;5064911;28;20154;-77
2022/07/06 04:30:08;;;;;;;4.57;1.70;;;13.60;99.90;;;;;;5066638;28;20083;-77
2022/07/06 04:32:35;;;;;;;4.47;1.77;;;13.60;99.90;;;;;;5069417;28;20070;-77
2022/07/06 04:35:02;;;;;;;4.43;2.00;;;13.60;99.90;;;;;;5051008;28;20056;-77
2022/07/06 04:37:27;;;;;;;6.13;1.87;;;13.70;99.90;;;;;;5071985;28;20454;-77
2022/07/06 04:39:53;;;;;;;4.17;2.10;;;13.60;99.90;;;;;;5054722;28;20037;-77
2022/07/06 04:42:19;;;;;;;4.17;1.97;;;13.70;99.90;;;;;;5048027;28;20076;-77
2022/07/06 04:44:45;;;;;;;4.40;1.73;;;13.70;99.90;;;;;;5057620;28;20088;-75
2022/07/06 04:47:12;;;;;;;5.97;1.90;;;13.70;99.90;;;;;;5059700;28;20047;-77
2022/07/06 04:49:37;;;;;;;4.07;2.13;;;13.70;99.90;;;;;;5059895;28;20072;-77
2022/07/06 04:52:04;;;;;;;6.67;1.70;;;13.70;99.90;;;;;;5066169;28;20043;-77
2022/07/06 04:54:30;;;;;;;6.30;2.13;;;13.80;99.90;;;;;;5063190;28;20092;-77
2022/07/06 04:56:55;;;;;;;3.87;1.80;;;13.80;99.90;;;;;;5062841;28;20056;-77
2022/07/06 04:59:21;;;;;;;5.27;1.90;;;13.80;99.90;;;;;;5064626;28;20040;-77
2022/07/06 05:01:47;;;;;;;5.70;1.90;;;13.80;99.90;;;;;;5065433;28;20045;-77
2022/07/06 05:04:13;;;;;;;5.17;1.90;;;13.90;99.90;;;;;;5068974;28;20112;-77
2022/07/06 05:06:39;;;;;;;5.17;1.63;;;14.00;99.90;;;;;;5052397;28;20048;-76
2022/07/06 05:09:05;;;;;;;5.97;1.87;;;14.00;99.90;;;;;;5071951;28;20072;-76
2022/07/06 05:11:31;;;;;;;4.73;1.80;;;14.00;99.90;;;;;;5066870;28;20036;-76
2022/07/06 05:13:57;;;;;;;5.25;1.58;;;14.10;99.90;;;;;;5041736;28;20061;-77
2022/07/06 05:16:23;;;;;;;4.80;1.40;;;14.10;99.90;;;;;;5044749;28;20050;-77
2022/07/06 05:18:48;;;;;;;5.83;1.50;;;14.20;99.90;;;;;;5060030;28;20037;-77
2022/07/06 05:21:14;;;;;;;3.40;1.40;;;14.20;99.90;;;;;;5049997;28;20127;-76
2022/07/06 05:23:40;;;;;;;5.10;1.80;;;14.30;99.90;;;;;;5045977;28;20055;-76
2022/07/06 05:26:06;;;;;;;2.42;1.33;;;14.40;99.90;;;;;;5038047;28;20044;-77
2022/07/06 05:28:32;;;;;;;5.32;1.77;;;14.40;99.90;;;;;;5037716;28;20048;-77
2022/07/06 05:30:57;;;;;;;4.00;1.40;;;14.40;99.90;;;;;;5049260;28;20048;-77
2022/07/06 05:33:23;;;;;;;3.17;1.57;;;14.40;99.90;;;;;;5063304;28;20133;-77
2022/07/06 05:35:49;;;;;;;3.20;1.60;;;14.40;99.90;;;;;;5047325;28;21087;-78
2022/07/06 05:38:15;;;;;;;4.13;1.60;;;14.50;99.90;;;;;;5062089;28;20044;-77
2022/07/06 05:40:41;;;;;;;5.97;1.67;;;14.50;99.90;;;;;;5061620;28;20822;-77
2022/07/06 05:43:07;;;;;;;3.58;1.40;;;14.50;99.90;;;;;;5046724;28;20044;-77
2022/07/06 05:45:32;;;;;;;3.95;1.50;;;14.50;99.90;;;;;;5069033;28;20062;-76
2022/07/06 05:50:42;;;;;;;7.60;1.30;;;14.60;99.90;;;;;;5051784;28;20078;-77
2022/07/06 05:53:08;;;;;;;5.45;1.40;;;14.60;99.90;;;;;;5045368;28;20032;-77
2022/07/06 05:55:34;;;;;;;4.82;1.58;;;14.60;99.90;;;;;;5064831;28;20041;-78
2022/07/06 05:57:59;;;;;;;5.50;1.55;;;14.70;99.90;;;;;;5064057;28;20102;-77
2022/07/06 06:00:27;;;;;;;4.13;1.35;;;14.70;99.90;;;;;;5063355;28;20103;-77
2022/07/06 06:02:53;;;;;;;5.85;2.03;;;14.80;99.90;;;;;;5063926;28;20577;-78
2022/07/06 06:05:20;;;;;;;5.75;1.30;;;14.80;99.90;;;;;;5064873;28;20036;-77
2022/07/06 06:07:48;;;;;;;2.97;1.25;;;14.90;99.90;;;;;;5063157;28;20049;-77
2022/07/06 06:10:14;;;;;;;4.47;1.10;;;14.90;99.90;;;;;;5059662;28;21547;-77
2022/07/06 06:12:41;;;;;;;3.42;1.20;;;14.90;99.90;;;;;;5048249;28;20059;-77
2022/07/06 06:15:08;;;;;;;3.58;1.30;;;15.00;99.90;;;;;;5066427;28;20426;-77
2022/07/06 06:17:35;;;;;;;4.90;1.48;;;15.00;99.90;;;;;;5066311;28;20049;-77
2022/07/06 06:20:00;;;;;;;4.68;1.00;;;15.00;99.90;;;;;;5066689;28;20047;-77
2022/07/06 06:22:26;;;;;;;3.05;0.88;;;15.00;99.90;;;;;;5046236;28;20104;-77
2022/07/06 06:24:52;;;;;;;9.32;1.55;;;14.90;99.90;;;;;;5064374;28;20707;-77
2022/07/06 06:27:18;;;;;;;2.42;1.02;;;14.90;99.90;;;;;;5046073;28;20071;-77
2022/07/06 06:29:44;;;;;;;3.10;0.80;;;14.90;99.90;;;;;;5065337;28;20067;-78
2022/07/06 06:32:13;;;;;;;3.95;1.00;;;14.80;99.90;;;;;;5063135;28;20622;-75
2022/07/06 06:34:40;;;;;;;4.28;1.13;;;14.70;99.90;;;;;;5060396;28;20053;-74
2022/07/06 06:37:06;;;;;;;3.65;0.90;;;14.70;99.90;;;;;;5061680;28;20060;-73
2022/07/06 06:39:32;;;;;;;2.53;1.00;;;14.60;99.90;;;;;;5045378;28;20059;-72
2022/07/06 06:41:58;;;;;;;4.25;1.15;;;14.80;99.90;;;;;;5061435;28;20640;-73
2022/07/06 06:44:24;;;;;;;4.10;0.98;;;14.90;99.90;;;;;;5061490;28;20565;-72
2022/07/06 06:46:51;;;;;;;2.28;0.90;;;15.00;99.90;;;;;;5064870;28;20101;-72
2022/07/06 06:49:18;;;;;;;1.67;0.70;;;15.10;99.90;;;;;;5059001;28;20112;-71
2022/07/06 06:51:44;;;;;;;2.80;0.93;;;15.20;99.90;;;;;;5062836;28;20048;-71
2022/07/06 06:54:10;;;;;;;3.25;0.80;;;15.20;99.90;;;;;;5062721;28;20138;-70
2022/07/06 06:56:35;;;;;;;10.95;1.25;;;15.30;99.90;;;;;;5045506;28;20600;-72
2022/07/06 06:59:01;;;;;;;11.35;1.40;;;15.30;99.90;;;;;;5046188;28;20119;-75
2022/07/06 07:01:27;;;;;;;5.13;0.85;;;15.30;99.90;;;;;;5061835;28;20046;-72
2022/07/06 07:03:55;;;;;;;4.13;1.10;;;15.30;99.90;;;;;;5045092;28;20041;-73
2022/07/06 07:06:21;;;;;;;2.35;0.90;;;15.40;99.90;;;;;;5062240;28;20073;-73
2022/07/06 07:08:46;;;;;;;3.55;1.10;;;15.40;99.90;;;;;;5045519;28;20075;-74
2022/07/06 07:11:12;;;;;;;4.32;1.05;;;15.40;99.90;;;;;;5046854;28;20041;-75
2022/07/06 07:13:38;;;;;;;4.30;1.02;;;15.50;99.90;;;;;;5045245;28;20126;-73
2022/07/06 07:16:04;;;;;;;2.85;0.90;;;15.50;99.90;;;;;;5063915;28;20041;-74
2022/07/06 07:18:30;;;;;;;2.72;0.80;;;15.40;99.90;;;;;;5058847;28;20055;-74
2022/07/06 07:20:56;;;;;;;5.05;0.93;;;15.40;99.90;;;;;;5063749;28;20109;-74
2022/07/06 07:23:21;;;;;;;5.57;1.10;;;15.50;99.90;;;;;;5063814;28;20671;-73
2022/07/06 07:25:47;;;;;;;6.68;1.30;;;15.50;99.90;;;;;;5064786;28;20049;-74
2022/07/06 07:28:13;;;;;;;3.45;0.95;;;15.50;99.90;;;;;;5063799;28;20040;-75
2022/07/06 07:30:39;;;;;;;1.42;0.73;;;15.60;99.90;;;;;;5048321;28;20098;-74
2022/07/06 07:33:04;;;;;;;3.70;0.88;;;15.70;99.90;;;;;;5061130;28;20055;-74
2022/07/06 07:35:30;;;;;;;2.15;0.77;;;15.80;99.90;;;;;;5045643;28;20466;-74
2022/07/06 07:37:56;;;;;;;3.67;0.90;;;15.90;99.90;;;;;;5069861;28;20055;-74
2022/07/06 07:40:21;;;;;;;2.45;1.00;;;16.00;99.90;;;;;;5048597;28;20041;-74
2022/07/06 07:42:47;;;;;;;5.15;1.42;;;16.20;99.90;;;;;;5063035;28;20409;-74
2022/07/06 07:45:13;;;;;;;3.05;0.90;;;16.30;99.90;;;;;;5064577;28;20041;-74
2022/07/06 07:47:39;;;;;;;2.33;1.00;;;16.50;99.90;;;;;;5032285;28;20043;-74
2022/07/06 07:50:05;;;;;;;2.33;0.85;;;16.70;99.90;;;;;;5048377;28;20067;-74
2022/07/06 07:52:31;;;;;;;1.73;0.77;;;16.90;99.90;;;;;;5062022;28;20143;-74
2022/07/06 07:54:57;;;;;;;1.92;0.90;;;17.10;99.90;;;;;;5062100;28;20708;-78
2022/07/06 07:57:23;;;;;;;2.10;0.90;;;17.40;99.90;;;;;;5060178;28;20083;-75
2022/07/06 07:59:48;;;;;;;1.75;0.90;;;17.60;99.90;;;;;;5063200;28;20044;-75
2022/07/06 08:02:14;;;;;;;4.03;1.30;;;17.50;99.90;;;;;;5062504;28;20104;-74
2022/07/06 08:04:40;;;;;;;3.45;1.10;;;17.50;99.90;;;;;;5064620;28;20051;-74
2022/07/06 08:07:06;;;;;;;3.72;0.90;;;17.50;99.90;;;;;;5060774;28;20040;-74
2022/07/06 08:09:32;;;;;;;4.05;0.90;;;17.80;99.90;;;;;;5061580;28;20036;-75
2022/07/06 08:11:58;;;;;;;3.83;0.85;;;17.90;99.90;;;;;;5060795;28;20045;-75
2022/07/06 08:14:24;;;;;;;1.95;0.68;;;18.00;99.90;;;;;;5059905;28;20040;-75
2022/07/06 08:16:50;;;;;;;2.28;0.65;;;18.10;99.90;;;;;;5062814;28;20654;-75
2022/07/06 08:19:16;;;;;;;1.80;0.73;;;18.10;99.90;;;;;;5034510;28;20199;-75
2022/07/06 08:21:42;;;;;;;2.85;0.77;;;18.00;99.90;;;;;;5062820;28;20642;-76
2022/07/06 08:24:08;;;;;;;4.53;0.70;;;18.00;99.90;;;;;;5064166;28;20068;-75
2022/07/06 08:26:34;;;;;;;4.53;0.80;;;18.10;99.90;;;;;;5060461;28;20056;-74
2022/07/06 08:29:00;;;;;;;2.47;0.68;;;18.00;99.90;;;;;;5063238;28;20049;-75
2022/07/06 08:31:29;;;;;;;4.03;1.00;;;17.70;99.90;;;;;;5060200;28;20048;-77
2022/07/06 08:33:55;;;;;;;2.40;0.70;;;17.40;99.90;;;;;;5047402;28;20068;-75
2022/07/06 08:36:21;;;;;;;3.90;1.05;;;17.20;99.90;;;;;;5066092;28;20102;-76
2022/07/06 08:38:49;;;;;;;4.15;0.70;;;17.00;99.90;;;;;;5045840;28;20041;-78
2022/07/06 08:41:15;;;;;;;3.60;0.70;;;16.90;99.90;;;;;;5050902;28;20053;-76
2022/07/06 08:43:41;;;;;;;3.83;1.10;;;16.70;99.90;;;;;;5053674;28;20096;-77
2022/07/06 08:46:08;;;;;;;2.55;0.65;;;16.60;99.90;;;;;;5070786;28;20599;-78
2022/07/06 08:48:38;;;;;;;2.65;0.95;;;16.70;99.90;;;;;;5058229;28;20459;-78
2022/07/06 08:51:04;;;;;;;2.88;0.90;;;16.80;99.90;;;;;;5024627;28;20080;-77
2022/07/06 08:53:30;;;;;;;3.50;1.00;;;17.00;99.90;;;;;;5024067;28;20057;-76
2022/07/06 08:55:56;;;;;;;5.10;0.88;;;17.10;99.90;;;;;;5044789;28;20056;-78
2022/07/06 08:58:27;;;;;;;3.05;0.80;;;17.20;99.90;;;;;;5043958;28;20048;-78
2022/07/06 09:00:57;;;;;;;3.72;1.20;;;17.40;99.90;;;;;;5064927;28;20037;-78
2022/07/06 09:03:23;;;;;;;3.97;0.70;;;17.60;99.90;;;;;;5059487;28;20048;-77
2022/07/06 09:05:51;;;;;;;2.83;0.70;;;17.80;99.90;;;;;;5066687;28;20090;-77
2022/07/06 09:08:18;;;;;;;1.58;0.70;;;17.90;99.90;;;;;;5046806;28;20041;-77
2022/07/06 09:10:44;;;;;;;2.72;0.80;;;17.90;99.90;;;;;;5061822;28;20041;-78
2022/07/06 09:13:10;;;;;;;2.50;0.88;;;18.00;99.90;;;;;;5044961;28;20091;-77
2022/07/06 09:15:39;;;;;;;1.98;0.60;;;18.00;99.90;;;;;;5066532;28;20051;-78
2022/07/06 09:18:05;;;;;;;3.10;0.73;;;18.20;99.90;;;;;;5063224;28;20057;-76
2022/07/06 09:20:31;;;;;;;3.30;0.60;;;18.40;99.90;;;;;;5065735;28;20206;-78
2022/07/06 09:23:00;;;;;;;1.85;0.55;;;18.50;99.90;;;;;;5043224;28;20111;-78
2022/07/06 09:25:26;;;;;;;3.30;0.68;;;18.60;99.90;;;;;;5046756;28;20045;-79
2022/07/06 09:27:56;;;;;;;1.17;0.50;;;18.70;99.90;;;;;;5058281;28;20079;-79
2022/07/06 09:30:23;;;;;;;2.95;0.70;;;19.00;99.90;;;;;;5060850;28;20044;-78
2022/07/06 09:32:53;;;;;;;1.80;0.65;;;19.30;99.90;;;;;;5063957;28;20045;-78
2022/07/06 09:35:25;;;;;;;1.98;0.60;;;19.20;99.90;;;;;;5056756;28;20081;-77
2022/07/06 09:38:13;;;;;;;1.48;0.60;;;19.20;99.90;;;;;;5042054;28;20045;-78
2022/07/06 09:40:42;;;;;;;1.80;0.63;;;19.20;99.90;;;;;;5061258;28;20047;-78
2022/07/06 09:43:18;;;;;;;2.20;0.57;;;19.00;99.90;;;;;;5055037;28;20562;-79
2022/07/06 09:45:50;;;;;;;0.63;0.50;;;18.90;99.90;;;;;;5061866;28;20044;-78
2022/07/06 09:48:22;;;;;;;;;;;19.10;99.90;;;;;;5060142;28;20047;-78
2022/07/06 09:50:51;;;;;;;5.55;0.70;;;19.20;99.90;;;;;;5061615;28;19920;-77
2022/07/06 09:53:18;;;;;;;2.22;0.70;;;19.60;99.90;;;;;;5069321;28;20053;-77
2022/07/06 09:55:48;;;;;;;2.85;0.60;;;19.90;99.90;;;;;;5027385;28;20048;-80
2022/07/06 09:58:15;;;;;;;1.63;0.60;;;20.00;99.90;;;;;;5058929;28;20120;-78
2022/07/06 10:00:42;;;;;;;0.90;0.40;;;20.00;99.90;;;;;;5060136;28;20476;-78
2022/07/06 10:03:08;;;;;;;2.55;0.68;;;19.90;99.90;;;;;;5067850;28;20079;-79
2022/07/06 10:05:46;;;;;;;1.38;0.52;;;20.00;99.90;;;;;;5022629;28;20496;-80
2022/07/06 10:08:16;;;;;;;1.15;0.60;;;20.10;99.90;;;;;;5064551;28;20049;-79
2022/07/06 10:10:42;;;;;;;3.25;0.50;;;20.10;99.90;;;;;;5044329;28;20051;-80
2022/07/06 10:13:09;;;;;;;1.67;0.50;;;19.90;99.90;;;;;;5034843;28;20045;-80
2022/07/06 10:15:39;;;;;;;2.55;0.60;;;19.70;99.90;;;;;;5041066;28;20037;-76
2022/07/06 10:18:08;;;;;;;4.30;0.70;;;19.30;99.90;;;;;;5038080;28;20052;-79
2022/07/06 10:20:36;;;;;;;1.27;0.70;;;18.90;99.90;;;;;;5064122;28;20123;-79
2022/07/06 10:23:03;;;;;;;2.97;0.88;;;18.70;99.90;;;;;;5037281;28;20207;-80
2022/07/06 10:25:31;;;;;;;2.90;0.73;;;18.80;99.90;;;;;;5048359;28;20052;-77
2022/07/06 10:27:57;;;;;;;3.22;1.27;;;19.10;99.90;;;;;;5059394;28;20116;-83
2022/07/06 10:30:24;;;;;;;4.90;0.90;;;19.30;99.90;;;;;;5040814;28;20064;-82
2022/07/06 10:32:50;;;;;;;3.28;0.88;;;19.40;99.90;;;;;;5042834;28;20079;-82
2022/07/06 10:35:19;;;;;;;1.23;0.63;;;19.60;99.90;;;;;;5055581;28;20053;-82
2022/07/06 10:37:45;;;;;;;2.05;1.00;;;19.80;99.90;;;;;;5055843;28;20083;-82
2022/07/06 10:43:00;;;;;;;2.47;0.73;;;20.00;99.90;;;;;;5057762;28;20052;-80
2022/07/06 10:45:29;;;;;;;3.15;0.80;;;19.90;99.90;;;;;;5064500;28;20044;-80
2022/07/06 10:48:15;;;;;;;1.40;0.68;;;20.00;99.90;;;;;;5059987;28;20052;-81
2022/07/06 10:50:43;;;;;;;1.10;0.57;;;20.10;99.90;;;;;;5058938;28;20052;-79
2022/07/06 10:53:52;;;;;;;3.10;0.80;;;20.20;99.90;;;;;;5040148;28;20043;-80
2022/07/06 10:56:18;;;;;;;1.95;0.65;;;20.10;99.90;;;;;;5054848;28;20093;-80
2022/07/06 10:58:53;;;;;;;3.83;0.60;;;20.10;99.90;;;;;;5048515;28;20036;-77
2022/07/06 11:01:20;;;;;;;3.28;0.80;;;20.20;99.90;;;;;;5059332;28;20144;-78
2022/07/06 11:03:57;;;;;;;2.25;0.50;;;20.30;99.90;;;;;;5055530;28;20041;-77
2022/07/06 11:06:24;;;;;;;1.15;0.60;;;20.60;99.90;;;;;;5048252;28;20056;-77
2022/07/06 11:08:58;;;;;;;3.03;0.65;;;20.50;98.00;;;;;;5046624;28;20103;-80
2022/07/06 11:11:45;;;;;;;2.97;0.80;;;20.40;96.50;;;;;;5044150;28;20041;-80
2022/07/06 11:14:14;;;;;;;1.70;0.50;;;20.00;96.00;;;;;;5057264;28;20060;-81
2022/07/06 11:17:01;;;;;;;1.00;0.60;;;20.10;98.80;;;;;;5044223;28;20188;-80
2022/07/06 11:19:27;;;;;;;2.53;0.60;;;20.50;99.90;;;;;;5042731;28;20123;-80
2022/07/06 11:22:09;;;;;;;2.75;0.70;;;20.80;97.40;;;;;;5065628;28;20102;-80
2022/07/06 11:24:40;;;;;;;1.75;0.50;;;20.90;94.40;;;;;;5043508;28;20399;-80
2022/07/06 11:27:06;;;;;;;1.27;0.60;;;21.10;95.80;;;;;;5061610;28;20037;-81
2022/07/06 11:29:34;;;;;;;3.28;0.90;;;21.00;95.30;;;;;;5047551;28;20041;-80
2022/07/06 11:32:03;;;;;;;2.30;0.70;;;20.80;94.40;;;;;;5062197;28;20053;-81
2022/07/06 11:34:43;;;;;;;2.65;0.65;;;20.60;94.10;;;;;;5040143;28;20483;-81
2022/07/06 11:37:11;;;;;;;4.10;0.70;;;20.50;91.80;;;;;;5049303;28;20045;-80
2022/07/06 11:39:41;;;;;;;2.75;0.50;;;20.30;94.00;;;;;;5042786;28;20049;-80
2022/07/06 11:42:09;;;;;;;1.08;0.55;;;20.10;94.60;;;;;;5056099;28;20049;-80
2022/07/06 11:44:36;;;;;;;1.30;0.73;;;20.00;95.60;;;;;;5038787;28;20087;-80
2022/07/06 11:47:03;;;;;;;4.18;1.23;;;20.10;96.40;;;;;;5062496;28;20052;-83
2022/07/06 11:49:30;;;;;;;1.85;0.68;;;20.50;95.60;;;;;;5046849;28;20045;-80
2022/07/06 11:51:56;;;;;;;4.78;0.80;;;20.70;94.70;;;;;;5055511;28;20130;-81
2022/07/06 11:54:24;;;;;;;3.70;0.70;;;20.60;93.80;;;;;;5062850;28;20116;-80
2022/07/06 11:57:00;;;;;;;1.08;0.50;;;20.50;93.80;;;;;;5062192;28;20065;-81
2022/07/06 11:59:27;;;;;;;3.78;0.82;;;20.40;93.60;;;;;;5040112;28;20045;-80
2022/07/06 12:02:27;;;;;;;1.85;0.57;;;20.30;94.50;;;;;;5040916;28;20037;-81
2022/07/06 12:04:52;;;;;;;1.23;0.60;;;20.40;94.60;;;;;;5037266;28;20079;-82
2022/07/06 12:07:18;;;;;;;2.47;0.70;;;20.40;94.00;;;;;;5065424;28;20067;-81
2022/07/06 12:09:46;;;;;;;3.70;0.80;;;20.70;93.10;;;;;;5043049;28;20048;-81
2022/07/06 12:12:13;;;;;;;1.73;0.70;;;21.20;93.60;;;;;;5061691;28;20444;-80
2022/07/06 12:14:40;;;;;;;2.47;0.90;;;21.60;92.10;;;;;;5061657;28;20098;-83
2022/07/06 12:17:14;;;;;;;1.40;0.70;;;21.80;90.20;;;;;;5049698;28;20105;-83
2022/07/06 12:19:41;;;;;;;2.78;0.68;;;21.60;88.20;;;;;;5058019;28;20045;-83
2022/07/06 12:22:08;;;;;;;3.00;1.05;;;21.40;90.00;;;;;;5059515;28;20040;-83
2022/07/06 12:24:37;;;;;;;2.30;0.73;;;21.30;91.70;;;;;;5060813;28;20041;-82
2022/07/06 12:27:17;;;;;;;2.17;0.65;;;21.20;91.20;;;;;;5032806;28;20476;-83
2022/07/06 12:29:43;;;;;;;1.70;0.60;;;21.30;90.10;;;;;;5063730;28;20048;-82
2022/07/06 12:32:29;;;;;;;2.40;0.77;;;21.30;91.90;;;;;;5052707;28;20043;-82
2022/07/06 12:35:05;;;;;;;2.85;0.75;;;21.10;90.10;;;;;;5064212;28;20045;-84
2022/07/06 12:37:31;;;;;;;3.63;0.80;;;21.20;91.40;;;;;;5058995;28;20072;-83
2022/07/06 12:39:57;;;;;;;3.75;0.80;;;21.10;91.50;;;;;;5041729;28;20512;-83
2022/07/06 12:42:22;;;;;;;1.45;0.90;;;20.90;91.60;;;;;;5029518;28;20080;-83
2022/07/06 12:44:50;;;;;;;0.52;0.50;;;21.10;91.50;;;;;;5069267;28;20040;-84
2022/07/06 12:47:23;;;;;;;4.13;0.70;;;21.30;90.80;;;;;;5056680;28;20041;-83
2022/07/06 12:50:08;;;;;;;3.95;0.70;;;21.50;89.50;;;;;;5047754;28;20064;-84
2022/07/06 12:52:35;;;;;;;2.17;0.88;;;21.50;91.00;;;;;;5057712;28;20033;-83
2022/07/06 12:55:03;;;;;;;3.38;0.90;;;21.40;90.50;;;;;;5068762;28;20076;-84
2022/07/06 12:57:48;;;;;;;2.85;0.57;;;21.30;90.80;;;;;;5041128;28;20123;-83